createdAt,value
2018-09-14T10:29:49.269Z,70.61
2018-09-14T10:32:18.294Z,56.34
2018-09-14T10:34:47.186Z,55.45
2018-09-14T10:37:17.026Z,54.46
2018-09-14T10:39:45.518Z,53.72
2018-09-14T10:42:14.427Z,52.58
2018-09-14T10:44:43.205Z,52.00
2018-09-14T10:47:12.000Z,50.71
2018-09-14T10:49:40.969Z,50.35
2018-09-14T10:52:09.530Z,50.42
2018-09-14T10:54:38.421Z,49.78
2018-09-14T10:57:07.365Z,47.98
2018-09-14T10:59:36.243Z,47.33
2018-09-14T11:02:05.721Z,47.64
2018-09-14T11:04:34.569Z,46.84
2018-09-14T11:07:03.846Z,47.40
2018-09-14T11:09:32.375Z,45.94
2018-09-14T11:12:01.304Z,45.85
2018-09-14T11:14:29.822Z,44.82
2018-09-14T11:16:58.744Z,44.62
2018-09-14T11:19:27.216Z,44.36
2018-09-14T11:21:55.920Z,43.95
2018-09-14T11:24:24.501Z,44.25
2018-09-14T11:26:53.357Z,43.50
2018-09-14T11:29:21.876Z,43.07
2018-09-14T11:31:51.673Z,42.95
2018-09-14T11:34:21.678Z,43.74
2018-09-14T11:36:50.325Z,43.33
2018-09-14T11:39:19.029Z,44.01
2018-09-14T11:41:47.788Z,43.31
2018-09-14T11:44:16.914Z,43.19
2018-09-14T11:46:46.032Z,43.44
2018-09-14T11:49:14.800Z,43.53
2018-09-14T11:51:44.224Z,43.07
2018-09-14T11:54:12.777Z,43.51
2018-09-14T11:56:41.825Z,43.94
2018-09-14T11:59:10.391Z,44.49
2018-09-14T12:01:39.319Z,44.10
2018-09-14T12:04:08.610Z,42.96
2018-09-14T12:06:37.153Z,43.45
2018-09-14T12:09:08.467Z,42.94
2018-09-14T12:11:37.561Z,42.58
2018-09-14T12:14:07.128Z,43.18
2018-09-14T12:16:36.413Z,42.45
2018-09-14T12:19:05.174Z,42.14
2018-09-14T12:21:34.024Z,42.48
2018-09-14T12:24:02.863Z,43.18
2018-09-14T12:26:31.504Z,43.29
2018-09-14T12:29:00.285Z,43.50
2018-09-14T12:31:28.853Z,43.46
2018-09-14T12:33:57.981Z,43.71
2018-09-14T12:36:26.901Z,43.02
2018-09-14T12:38:55.762Z,43.61
2018-09-14T12:41:25.017Z,43.08
2018-09-14T12:43:53.506Z,43.08
2018-09-14T12:46:22.044Z,43.87
2018-09-14T12:48:50.572Z,43.29
2018-09-14T12:51:19.154Z,43.33
2018-09-14T12:53:47.725Z,43.31
2018-09-14T12:56:16.786Z,43.59
2018-09-14T12:58:45.461Z,43.08
2018-09-14T13:01:14.350Z,43.29
2018-09-14T13:03:42.952Z,43.58
2018-09-14T13:06:11.788Z,43.03
2018-09-14T13:08:41.452Z,43.13
2018-09-14T13:11:10.026Z,43.14
2018-09-14T13:13:38.953Z,43.34
2018-09-14T13:16:07.692Z,43.88
2018-09-14T13:18:36.335Z,43.87
2018-09-14T13:21:04.935Z,43.12
2018-09-14T13:23:33.905Z,42.88
2018-09-14T13:26:02.680Z,43.00
2018-09-14T13:28:31.615Z,43.44
2018-09-14T13:31:00.680Z,43.59
2018-09-14T13:33:29.303Z,44.10
2018-09-14T13:35:57.940Z,43.79
2018-09-14T13:38:27.536Z,43.68
2018-09-14T13:40:56.493Z,44.55
2018-09-14T13:43:25.589Z,45.05
2018-09-14T13:45:54.417Z,44.89
2018-09-14T13:48:23.074Z,44.97
2018-09-14T13:50:51.631Z,45.38
2018-09-14T13:53:20.172Z,45.58
2018-09-14T13:55:48.739Z,45.97
2018-09-14T13:58:17.366Z,46.65
2018-09-14T14:00:46.779Z,46.59
2018-09-14T14:03:15.593Z,46.98
2018-09-14T14:05:44.191Z,47.12
2018-09-14T14:08:13.211Z,47.92
2018-09-14T14:10:42.089Z,48.07
2018-09-14T14:13:11.005Z,47.69
2018-09-14T14:15:40.078Z,47.86
2018-09-14T14:18:08.962Z,48.65
2018-09-14T14:20:37.593Z,48.18
2018-09-14T14:23:07.073Z,48.59
2018-09-14T14:25:36.172Z,48.51
2018-09-14T14:28:04.887Z,49.11
2018-09-14T14:30:34.150Z,48.62
2018-09-14T14:33:03.313Z,48.96
2018-09-14T14:35:32.338Z,48.37
2018-09-14T14:38:01.120Z,48.48
2018-09-14T14:40:30.009Z,48.66
2018-09-14T14:42:59.004Z,48.44
2018-09-14T14:45:27.795Z,48.22
2018-09-14T14:47:56.628Z,49.05
2018-09-14T14:50:25.072Z,48.26
2018-09-14T14:52:53.752Z,48.02
2018-09-14T14:55:22.653Z,47.85
2018-09-14T14:57:51.601Z,48.21
2018-09-14T15:00:20.743Z,48.89
2018-09-14T15:02:49.815Z,48.85
2018-09-14T15:05:18.327Z,48.83
2018-09-14T15:07:47.310Z,48.16
2018-09-14T15:10:15.780Z,48.97
2018-09-14T15:12:44.902Z,48.29
2018-09-14T15:15:13.322Z,48.51
2018-09-14T15:17:42.251Z,48.85
2018-09-14T15:20:10.775Z,48.29
2018-09-14T15:22:39.697Z,48.28
2018-09-14T15:25:08.689Z,48.94
2018-09-14T15:27:37.552Z,48.39
2018-09-14T15:30:06.163Z,48.25
2018-09-14T15:32:35.124Z,49.07
2018-09-14T15:35:04.320Z,48.38
2018-09-14T15:37:33.356Z,48.45
2018-09-14T15:40:01.912Z,49.04
2018-09-14T15:42:31.006Z,48.48
2018-09-14T15:44:59.500Z,49.35
2018-09-14T15:47:28.334Z,49.35
2018-09-14T15:49:56.813Z,48.98
2018-09-14T15:52:25.742Z,49.16
2018-09-14T15:54:55.338Z,49.41
2018-09-14T15:57:24.228Z,49.02
2018-09-14T15:59:52.752Z,49.07
2018-09-14T16:02:21.809Z,48.86
2018-09-14T16:04:50.550Z,48.67
2018-09-14T16:07:19.480Z,48.73
2018-09-14T16:09:48.064Z,49.27
2018-09-14T16:12:17.064Z,49.41
2018-09-14T16:14:45.551Z,48.65
2018-09-14T16:17:14.409Z,49.53
2018-09-14T16:19:43.033Z,49.08
2018-09-14T16:22:12.033Z,49.15
2018-09-14T16:24:41.260Z,48.98
2018-09-14T16:27:10.257Z,49.62
2018-09-14T16:29:39.023Z,49.49
2018-09-14T16:32:08.464Z,49.77
2018-09-14T16:34:37.101Z,49.33
2018-09-14T16:37:08.382Z,49.25
2018-09-14T16:39:37.326Z,49.22
2018-09-14T16:42:05.880Z,49.82
2018-09-14T16:44:34.820Z,49.63
2018-09-14T16:47:04.671Z,50.42
2018-09-14T16:49:33.703Z,50.11
2018-09-14T16:52:02.501Z,50.33
2018-09-14T16:54:31.372Z,50.11
2018-09-14T16:57:00.308Z,50.98
2018-09-14T16:59:29.260Z,50.47
2018-09-14T17:01:57.790Z,50.77
2018-09-14T17:04:26.800Z,50.78
2018-09-14T17:06:56.336Z,51.09
2018-09-14T17:09:25.953Z,51.75
2018-09-14T17:11:54.983Z,51.13
2018-09-14T17:14:24.125Z,51.21
2018-09-14T17:16:53.300Z,52.08
2018-09-14T17:19:22.110Z,51.64
2018-09-14T17:21:51.223Z,52.21
2018-09-14T17:24:19.897Z,52.48
2018-09-14T17:26:48.639Z,51.57
2018-09-14T17:29:17.478Z,52.02
2018-09-14T17:31:46.034Z,52.44
2018-09-14T17:34:15.024Z,52.12
2018-09-14T17:36:43.570Z,52.03
2018-09-14T17:39:12.386Z,51.91
2018-09-14T17:41:41.884Z,51.91
2018-09-14T17:44:10.881Z,52.19
2018-09-14T17:46:40.313Z,51.94
2018-09-14T17:49:08.992Z,52.27
2018-09-14T17:51:37.948Z,52.01
2018-09-14T17:54:07.025Z,52.06
2018-09-14T17:56:36.229Z,52.93
2018-09-14T17:59:05.288Z,53.15
2018-09-14T18:01:34.277Z,52.88
2018-09-14T18:04:03.071Z,53.26
2018-09-14T18:06:31.847Z,52.71
2018-09-14T18:09:00.651Z,53.02
2018-09-14T18:11:29.633Z,52.99
2018-09-14T18:13:59.032Z,53.41
2018-09-14T18:16:27.992Z,53.95
2018-09-14T18:18:56.456Z,53.96
2018-09-14T18:21:25.324Z,53.74
2018-09-14T18:23:53.758Z,53.76
2018-09-14T18:26:22.494Z,54.14
2018-09-14T18:28:51.016Z,54.13
2018-09-14T18:31:19.651Z,54.87
2018-09-14T18:33:48.753Z,54.51
2018-09-14T18:36:17.726Z,54.60
2018-09-14T18:38:46.569Z,54.72
2018-09-14T18:41:15.246Z,55.65
2018-09-14T18:43:44.155Z,55.74
2018-09-14T18:46:12.688Z,55.17
2018-09-14T18:48:41.625Z,56.01
2018-09-14T18:51:10.528Z,56.04
2018-09-14T18:53:39.167Z,56.12
2018-09-14T18:56:08.406Z,55.88
2018-09-14T18:58:36.965Z,56.64
2018-09-14T19:01:06.181Z,56.59
2018-09-14T19:03:35.069Z,56.92
2018-09-14T19:06:05.537Z,56.25
2018-09-14T19:08:34.352Z,56.65
2018-09-14T19:11:03.478Z,56.91
2018-09-14T19:13:31.993Z,57.03
2018-09-14T19:16:01.189Z,57.13
2018-09-14T19:18:29.765Z,57.61
2018-09-14T19:20:58.397Z,57.82
2018-09-14T19:23:27.709Z,57.54
2018-09-14T19:25:56.612Z,57.35
2018-09-14T19:28:25.532Z,58.12
2018-09-14T19:30:54.130Z,57.78
2018-09-14T19:33:23.146Z,58.07
2018-09-14T19:35:51.820Z,58.30
2018-09-14T19:38:20.551Z,58.34
2018-09-14T19:40:49.452Z,58.61
2018-09-14T19:43:17.987Z,58.72
2018-09-14T19:45:46.887Z,58.27
2018-09-14T19:48:15.421Z,58.35
2018-09-14T19:50:45.319Z,58.24
2018-09-14T19:53:13.873Z,58.54
2018-09-14T19:55:42.849Z,58.62
2018-09-14T19:58:11.474Z,59.00
2018-09-14T20:00:40.056Z,58.78
2018-09-14T20:03:09.302Z,58.84
2018-09-14T20:05:37.843Z,59.38
2018-09-14T20:08:06.739Z,59.42
2018-09-14T20:10:35.209Z,59.34
2018-09-14T20:13:04.809Z,58.78
2018-09-14T20:15:33.344Z,59.17
2018-09-14T20:18:02.416Z,59.80
2018-09-14T20:20:31.325Z,59.46
2018-09-14T20:23:01.099Z,59.13
2018-09-14T20:25:29.964Z,59.56
2018-09-14T20:27:59.346Z,59.69
2018-09-14T20:30:28.301Z,60.20
2018-09-14T20:32:57.520Z,59.75
2018-09-14T20:35:26.593Z,60.21
2018-09-14T20:37:55.384Z,60.31
2018-09-14T20:40:24.193Z,60.43
2018-09-14T20:42:52.786Z,60.15
2018-09-14T20:45:21.464Z,60.81
2018-09-14T20:47:50.649Z,60.37
2018-09-14T20:50:19.712Z,60.26
2018-09-14T20:52:48.530Z,60.78
2018-09-14T20:55:17.280Z,61.18
2018-09-14T20:57:46.178Z,60.53
2018-09-14T21:00:17.878Z,60.60
2018-09-14T21:02:46.861Z,60.88
2018-09-14T21:05:15.444Z,61.59
2018-09-14T21:07:44.482Z,61.21
2018-09-14T21:10:13.454Z,61.18
2018-09-14T21:12:42.127Z,61.31
2018-09-14T21:15:11.010Z,61.24
2018-09-14T21:17:40.367Z,61.89
2018-09-14T21:20:08.870Z,62.14
2018-09-14T21:22:38.218Z,62.09
2018-09-14T21:25:08.596Z,61.73
2018-09-14T21:27:37.692Z,61.77
2018-09-14T21:30:07.961Z,62.64
2018-09-14T21:32:37.341Z,62.05
2018-09-14T21:35:06.609Z,62.20
2018-09-14T21:37:35.408Z,62.52
2018-09-14T21:40:05.044Z,62.33
2018-09-14T21:45:06.298Z,62.78
2018-09-14T21:47:35.136Z,62.86
2018-09-14T21:50:03.677Z,62.44
2018-09-14T21:52:32.504Z,62.60
2018-09-14T21:55:01.415Z,62.63
2018-09-14T21:57:29.957Z,62.71
2018-09-14T21:59:58.944Z,63.19
2018-09-14T22:02:27.529Z,63.29
2018-09-14T22:04:56.310Z,63.15
2018-09-14T22:07:25.236Z,62.65
2018-09-14T22:09:53.900Z,62.84
2018-09-14T22:12:22.787Z,62.89
2018-09-14T22:14:51.363Z,63.49
2018-09-14T22:17:20.118Z,63.34
2018-09-14T22:19:48.622Z,63.07
2018-09-14T22:22:17.229Z,62.71
2018-09-14T22:24:46.063Z,62.94
2018-09-14T22:27:14.577Z,63.04
2018-09-14T22:29:43.350Z,62.89
2018-09-14T22:32:12.207Z,63.41
2018-09-14T22:34:41.439Z,63.01
2018-09-14T22:37:10.221Z,63.16
2018-09-14T22:39:38.924Z,63.29
2018-09-14T22:42:08.201Z,63.39
2018-09-14T22:44:36.750Z,63.15
2018-09-14T22:47:05.884Z,63.38
2018-09-14T22:49:34.351Z,63.24
2018-09-14T22:52:03.319Z,64.00
2018-09-14T22:54:32.271Z,63.22
2018-09-14T22:57:00.886Z,63.32
2018-09-14T22:59:29.598Z,64.11
2018-09-14T23:01:58.117Z,64.00
2018-09-14T23:04:26.769Z,63.39
2018-09-14T23:06:55.592Z,64.35
2018-09-14T23:09:24.142Z,64.50
2018-09-14T23:11:53.248Z,63.78
2018-09-14T23:14:21.952Z,63.75
2018-09-14T23:16:50.970Z,64.34
2018-09-14T23:19:19.535Z,64.15
2018-09-14T23:21:48.494Z,63.99
2018-09-14T23:24:17.295Z,64.50
2018-09-14T23:26:45.985Z,64.82
2018-09-14T23:29:14.726Z,64.30
2018-09-14T23:31:43.246Z,64.34
2018-09-14T23:34:11.744Z,64.91
2018-09-14T23:36:40.754Z,65.18
2018-09-14T23:39:10.790Z,64.98
2018-09-14T23:41:39.447Z,65.16
2018-09-14T23:44:08.441Z,65.53
2018-09-14T23:46:37.392Z,65.69
2018-09-14T23:49:06.114Z,65.83
2018-09-14T23:51:35.178Z,66.05
2018-09-14T23:54:03.736Z,65.48
2018-09-14T23:56:32.600Z,65.92
2018-09-14T23:59:01.148Z,65.72
